sensor_id;sensor_type;location;lat;lon;timestamp;temperature;humidity
20233;DHT22;37438;55.674;13.074;2023-02-22T00:01:49;2.40;99.90
20233;DHT22;37438;55.674;13.074;2023-02-22T00:05:14;2.30;99.90
20233;DHT22;37438;55.674;13.074;2023-02-22T00:08:22;2.40;99.90
20233;DHT22;37438;55.674;13.074;2023-02-22T00:11:26;2.40;99.90
20233;DHT22;37438;55.674;13.074;2023-02-22T00:14:31;2.60;99.90
20233;DHT22;37438;55.674;13.074;2023-02-22T00:17:35;2.60;99.90
20233;DHT22;37438;55.674;13.074;2023-02-22T00:20:40;2.60;99.90
20233;DHT22;37438;55.674;13.074;2023-02-22T00:23:45;2.60;99.90
20233;DHT22;37438;55.674;13.074;2023-02-22T00:26:52;2.40;99.90
20233;DHT22;37438;55.674;13.074;2023-02-22T00:29:58;2.60;99.90
20233;DHT22;37438;55.674;13.074;2023-02-22T00:33:03;2.60;99.90
20233;DHT22;37438;55.674;13.074;2023-02-22T00:36:11;2.50;99.90
20233;DHT22;37438;55.674;13.074;2023-02-22T00:39:16;2.70;99.90
20233;DHT22;37438;55.674;13.074;2023-02-22T00:42:21;2.60;99.90
20233;DHT22;37438;55.674;13.074;2023-02-22T00:45:27;2.70;99.90
20233;DHT22;37438;55.674;13.074;2023-02-22T00:48:32;2.70;99.90
20233;DHT22;37438;55.674;13.074;2023-02-22T00:51:37;2.50;99.90
20233;DHT22;37438;55.674;13.074;2023-02-22T00:54:41;2.60;99.90
20233;DHT22;37438;55.674;13.074;2023-02-22T00:57:46;2.50;99.90
20233;DHT22;37438;55.674;13.074;2023-02-22T01:00:50;2.70;99.90
20233;DHT22;37438;55.674;13.074;2023-02-22T01:03:55;2.60;99.90
20233;DHT22;37438;55.674;13.074;2023-02-22T01:06:59;2.60;99.90
20233;DHT22;37438;55.674;13.074;2023-02-22T01:10:05;2.50;99.90
20233;DHT22;37438;55.674;13.074;2023-02-22T01:13:12;2.60;99.90
20233;DHT22;37438;55.674;13.074;2023-02-22T01:16:16;2.50;99.90
20233;DHT22;37438;55.674;13.074;2023-02-22T01:19:21;2.50;99.90
20233;DHT22;37438;55.674;13.074;2023-02-22T01:22:26;2.50;99.90
20233;DHT22;37438;55.674;13.074;2023-02-22T01:25:31;2.50;99.90
20233;DHT22;37438;55.674;13.074;2023-02-22T01:28:37;2.40;99.90
20233;DHT22;37438;55.674;13.074;2023-02-22T01:31:43;2.50;99.90
20233;DHT22;37438;55.674;13.074;2023-02-22T01:34:53;2.40;99.90
20233;DHT22;37438;55.674;13.074;2023-02-22T01:37:58;2.40;99.90
20233;DHT22;37438;55.674;13.074;2023-02-22T01:41:03;2.30;99.90
20233;DHT22;37438;55.674;13.074;2023-02-22T01:44:35;2.40;99.90
20233;DHT22;37438;55.674;13.074;2023-02-22T01:47:41;2.40;99.90
20233;DHT22;37438;55.674;13.074;2023-02-22T01:50:56;2.40;99.90
20233;DHT22;37438;55.674;13.074;2023-02-22T01:54:05;2.30;99.90
20233;DHT22;37438;55.674;13.074;2023-02-22T01:57:14;2.40;99.90
20233;DHT22;37438;55.674;13.074;2023-02-22T02:00:21;2.30;99.90
20233;DHT22;37438;55.674;13.074;2023-02-22T02:03:30;2.40;99.90
20233;DHT22;37438;55.674;13.074;2023-02-22T02:06:36;2.50;99.90
20233;DHT22;37438;55.674;13.074;2023-02-22T02:09:56;2.60;99.90
20233;DHT22;37438;55.674;13.074;2023-02-22T02:13:00;2.50;99.90
20233;DHT22;37438;55.674;13.074;2023-02-22T02:16:07;2.50;99.90
20233;DHT22;37438;55.674;13.074;2023-02-22T02:19:40;2.50;99.90
20233;DHT22;37438;55.674;13.074;2023-02-22T02:29:55;2.20;99.90
20233;DHT22;37438;55.674;13.074;2023-02-22T02:36:35;2.40;99.90
20233;DHT22;37438;55.674;13.074;2023-02-22T02:40:08;2.40;99.90
20233;DHT22;37438;55.674;13.074;2023-02-22T02:47:10;2.30;99.90
20233;DHT22;37438;55.674;13.074;2023-02-22T02:50:22;2.20;99.90
20233;DHT22;37438;55.674;13.074;2023-02-22T02:53:33;2.20;99.90
20233;DHT22;37438;55.674;13.074;2023-02-22T02:56:38;2.20;99.90
20233;DHT22;37438;55.674;13.074;2023-02-22T02:59:43;2.30;99.90
20233;DHT22;37438;55.674;13.074;2023-02-22T03:02:57;2.30;99.90
20233;DHT22;37438;55.674;13.074;2023-02-22T03:12:47;2.20;99.90
20233;DHT22;37438;55.674;13.074;2023-02-22T03:19:43;2.20;99.90
20233;DHT22;37438;55.674;13.074;2023-02-22T03:22:56;2.20;99.90
20233;DHT22;37438;55.674;13.074;2023-02-22T03:26:20;2.20;99.90
20233;DHT22;37438;55.674;13.074;2023-02-22T03:29:31;2.30;99.90
20233;DHT22;37438;55.674;13.074;2023-02-22T03:32:44;2.10;99.90
20233;DHT22;37438;55.674;13.074;2023-02-22T03:35:58;2.20;99.90
20233;DHT22;37438;55.674;13.074;2023-02-22T03:39:03;2.10;99.90
20233;DHT22;37438;55.674;13.074;2023-02-22T03:42:18;2.20;99.90
20233;DHT22;37438;55.674;13.074;2023-02-22T03:45:26;2.30;99.90
20233;DHT22;37438;55.674;13.074;2023-02-22T03:51:42;2.20;99.90
20233;DHT22;37438;55.674;13.074;2023-02-22T03:54:47;2.50;99.90
20233;DHT22;37438;55.674;13.074;2023-02-22T03:57:59;2.40;99.90
20233;DHT22;37438;55.674;13.074;2023-02-22T04:01:07;2.30;99.90
20233;DHT22;37438;55.674;13.074;2023-02-22T04:04:12;2.40;99.90
20233;DHT22;37438;55.674;13.074;2023-02-22T04:07:17;2.40;99.90
20233;DHT22;37438;55.674;13.074;2023-02-22T04:10:23;2.50;99.90
20233;DHT22;37438;55.674;13.074;2023-02-22T04:13:28;2.40;99.90
20233;DHT22;37438;55.674;13.074;2023-02-22T04:16:34;2.40;99.90
20233;DHT22;37438;55.674;13.074;2023-02-22T04:19:43;2.40;99.90
20233;DHT22;37438;55.674;13.074;2023-02-22T04:22:54;2.60;99.90
20233;DHT22;37438;55.674;13.074;2023-02-22T04:25:58;2.50;99.90
20233;DHT22;37438;55.674;13.074;2023-02-22T04:29:03;2.50;99.90
20233;DHT22;37438;55.674;13.074;2023-02-22T04:32:14;2.60;99.90
20233;DHT22;37438;55.674;13.074;2023-02-22T04:35:19;2.60;99.90
20233;DHT22;37438;55.674;13.074;2023-02-22T04:38:24;2.70;99.90
20233;DHT22;37438;55.674;13.074;2023-02-22T04:41:31;2.50;99.90
20233;DHT22;37438;55.674;13.074;2023-02-22T04:44:35;2.70;99.90
20233;DHT22;37438;55.674;13.074;2023-02-22T04:47:41;2.60;99.90
20233;DHT22;37438;55.674;13.074;2023-02-22T04:50:45;2.70;99.90
20233;DHT22;37438;55.674;13.074;2023-02-22T04:53:50;2.60;99.90
20233;DHT22;37438;55.674;13.074;2023-02-22T04:56:55;2.70;99.90
20233;DHT22;37438;55.674;13.074;2023-02-22T05:00:00;2.90;99.90
20233;DHT22;37438;55.674;13.074;2023-02-22T05:03:06;2.80;99.90
20233;DHT22;37438;55.674;13.074;2023-02-22T05:06:10;2.80;99.90
20233;DHT22;37438;55.674;13.074;2023-02-22T05:09:17;2.70;99.90
20233;DHT22;37438;55.674;13.074;2023-02-22T05:12:21;2.80;99.90
20233;DHT22;37438;55.674;13.074;2023-02-22T05:15:26;2.70;99.90
20233;DHT22;37438;55.674;13.074;2023-02-22T05:18:30;2.80;99.90
20233;DHT22;37438;55.674;13.074;2023-02-22T05:21:35;2.90;99.90
20233;DHT22;37438;55.674;13.074;2023-02-22T05:24:39;2.80;99.90
20233;DHT22;37438;55.674;13.074;2023-02-22T05:27:43;2.70;99.90
20233;DHT22;37438;55.674;13.074;2023-02-22T05:30:48;2.80;99.90
20233;DHT22;37438;55.674;13.074;2023-02-22T05:33:52;2.90;99.90
20233;DHT22;37438;55.674;13.074;2023-02-22T05:36:56;2.70;99.90
20233;DHT22;37438;55.674;13.074;2023-02-22T05:40:01;2.70;99.90
20233;DHT22;37438;55.674;13.074;2023-02-22T05:43:05;2.80;99.90
20233;DHT22;37438;55.674;13.074;2023-02-22T05:46:10;2.80;99.90
20233;DHT22;37438;55.674;13.074;2023-02-22T05:49:15;2.80;99.90
20233;DHT22;37438;55.674;13.074;2023-02-22T05:52:19;2.90;99.90
20233;DHT22;37438;55.674;13.074;2023-02-22T05:55:23;2.90;99.90
20233;DHT22;37438;55.674;13.074;2023-02-22T05:58:28;2.90;99.90
20233;DHT22;37438;55.674;13.074;2023-02-22T06:01:32;2.90;99.90
20233;DHT22;37438;55.674;13.074;2023-02-22T06:04:37;2.90;99.90
20233;DHT22;37438;55.674;13.074;2023-02-22T06:07:41;2.80;99.90
20233;DHT22;37438;55.674;13.074;2023-02-22T06:10:45;2.90;99.90
20233;DHT22;37438;55.674;13.074;2023-02-22T06:13:51;2.80;99.90
20233;DHT22;37438;55.674;13.074;2023-02-22T06:16:57;2.80;99.90
20233;DHT22;37438;55.674;13.074;2023-02-22T06:20:02;3.00;99.90
20233;DHT22;37438;55.674;13.074;2023-02-22T06:23:07;3.00;99.90
20233;DHT22;37438;55.674;13.074;2023-02-22T06:26:11;2.80;99.90
20233;DHT22;37438;55.674;13.074;2023-02-22T06:29:18;2.80;99.90
20233;DHT22;37438;55.674;13.074;2023-02-22T06:32:23;2.80;99.90
20233;DHT22;37438;55.674;13.074;2023-02-22T06:35:27;2.80;99.90
20233;DHT22;37438;55.674;13.074;2023-02-22T06:38:32;3.00;99.90
20233;DHT22;37438;55.674;13.074;2023-02-22T06:41:37;3.00;99.90
20233;DHT22;37438;55.674;13.074;2023-02-22T06:44:41;3.10;99.90
20233;DHT22;37438;55.674;13.074;2023-02-22T06:47:45;3.20;99.90
20233;DHT22;37438;55.674;13.074;2023-02-22T06:50:50;3.30;99.90
20233;DHT22;37438;55.674;13.074;2023-02-22T06:53:54;3.30;99.90
20233;DHT22;37438;55.674;13.074;2023-02-22T06:56:59;3.40;99.90
20233;DHT22;37438;55.674;13.074;2023-02-22T07:00:04;3.40;99.90
20233;DHT22;37438;55.674;13.074;2023-02-22T07:03:09;3.40;99.90
20233;DHT22;37438;55.674;13.074;2023-02-22T07:06:14;3.70;99.90
20233;DHT22;37438;55.674;13.074;2023-02-22T07:09:19;3.80;99.90
20233;DHT22;37438;55.674;13.074;2023-02-22T07:12:23;3.70;99.90
20233;DHT22;37438;55.674;13.074;2023-02-22T07:15:29;4.00;99.90
20233;DHT22;37438;55.674;13.074;2023-02-22T07:18:34;3.80;99.90
20233;DHT22;37438;55.674;13.074;2023-02-22T07:21:39;3.90;99.90
20233;DHT22;37438;55.674;13.074;2023-02-22T07:24:43;4.00;99.90
20233;DHT22;37438;55.674;13.074;2023-02-22T07:27:47;3.80;99.90
20233;DHT22;37438;55.674;13.074;2023-02-22T07:30:52;3.60;99.90
20233;DHT22;37438;55.674;13.074;2023-02-22T07:33:56;3.90;99.90
20233;DHT22;37438;55.674;13.074;2023-02-22T07:37:01;3.90;99.90
20233;DHT22;37438;55.674;13.074;2023-02-22T07:40:06;4.00;99.90
20233;DHT22;37438;55.674;13.074;2023-02-22T07:43:22;4.00;99.90
20233;DHT22;37438;55.674;13.074;2023-02-22T07:46:28;4.10;99.90
20233;DHT22;37438;55.674;13.074;2023-02-22T07:49:33;4.00;99.90
20233;DHT22;37438;55.674;13.074;2023-02-22T07:52:37;4.00;99.90
20233;DHT22;37438;55.674;13.074;2023-02-22T07:55:41;4.00;99.90
20233;DHT22;37438;55.674;13.074;2023-02-22T07:58:46;4.00;99.90
20233;DHT22;37438;55.674;13.074;2023-02-22T08:01:51;4.00;99.90
20233;DHT22;37438;55.674;13.074;2023-02-22T08:04:55;4.10;99.90
20233;DHT22;37438;55.674;13.074;2023-02-22T08:08:00;4.10;99.90
20233;DHT22;37438;55.674;13.074;2023-02-22T08:11:05;4.10;99.90
20233;DHT22;37438;55.674;13.074;2023-02-22T08:14:09;4.20;99.90
20233;DHT22;37438;55.674;13.074;2023-02-22T08:17:14;4.30;99.90
20233;DHT22;37438;55.674;13.074;2023-02-22T08:20:19;4.30;99.90
20233;DHT22;37438;55.674;13.074;2023-02-22T08:23:24;4.30;99.90
20233;DHT22;37438;55.674;13.074;2023-02-22T08:26:30;4.30;99.90
20233;DHT22;37438;55.674;13.074;2023-02-22T08:29:34;4.40;99.90
20233;DHT22;37438;55.674;13.074;2023-02-22T08:32:39;4.50;99.90
20233;DHT22;37438;55.674;13.074;2023-02-22T08:35:44;4.50;99.90
20233;DHT22;37438;55.674;13.074;2023-02-22T08:38:49;4.40;99.90
20233;DHT22;37438;55.674;13.074;2023-02-22T08:41:53;4.50;99.90
20233;DHT22;37438;55.674;13.074;2023-02-22T08:44:58;4.70;99.90
20233;DHT22;37438;55.674;13.074;2023-02-22T08:48:02;4.70;99.90
20233;DHT22;37438;55.674;13.074;2023-02-22T08:51:07;4.70;99.90
20233;DHT22;37438;55.674;13.074;2023-02-22T08:54:13;4.70;99.90
20233;DHT22;37438;55.674;13.074;2023-02-22T08:57:17;4.80;99.90
20233;DHT22;37438;55.674;13.074;2023-02-22T09:00:25;4.80;99.90
20233;DHT22;37438;55.674;13.074;2023-02-22T09:03:29;4.90;99.90
20233;DHT22;37438;55.674;13.074;2023-02-22T09:06:34;4.80;99.90
20233;DHT22;37438;55.674;13.074;2023-02-22T09:09:38;4.90;99.90
20233;DHT22;37438;55.674;13.074;2023-02-22T09:12:43;5.00;99.90
20233;DHT22;37438;55.674;13.074;2023-02-22T09:15:47;5.00;99.90
20233;DHT22;37438;55.674;13.074;2023-02-22T09:18:51;5.00;99.90
20233;DHT22;37438;55.674;13.074;2023-02-22T09:21:57;5.10;99.90
20233;DHT22;37438;55.674;13.074;2023-02-22T09:25:03;5.00;99.90
20233;DHT22;37438;55.674;13.074;2023-02-22T09:28:20;5.00;99.90
20233;DHT22;37438;55.674;13.074;2023-02-22T09:31:24;5.10;99.90
20233;DHT22;37438;55.674;13.074;2023-02-22T09:34:28;5.20;99.90
20233;DHT22;37438;55.674;13.074;2023-02-22T09:37:33;5.20;99.90
20233;DHT22;37438;55.674;13.074;2023-02-22T09:40:44;5.40;99.90
20233;DHT22;37438;55.674;13.074;2023-02-22T09:47:26;5.50;99.90
20233;DHT22;37438;55.674;13.074;2023-02-22T09:50:39;5.50;99.90
20233;DHT22;37438;55.674;13.074;2023-02-22T09:53:47;5.70;99.90
20233;DHT22;37438;55.674;13.074;2023-02-22T09:56:56;5.70;99.90
20233;DHT22;37438;55.674;13.074;2023-02-22T10:00:17;5.70;99.90
20233;DHT22;37438;55.674;13.074;2023-02-22T10:03:35;5.80;99.90
20233;DHT22;37438;55.674;13.074;2023-02-22T10:06:48;5.80;99.90
20233;DHT22;37438;55.674;13.074;2023-02-22T10:09:56;5.60;99.90
20233;DHT22;37438;55.674;13.074;2023-02-22T10:13:19;5.50;99.90
20233;DHT22;37438;55.674;13.074;2023-02-22T10:16:39;5.50;99.90
20233;DHT22;37438;55.674;13.074;2023-02-22T10:23:32;5.60;99.90
20233;DHT22;37438;55.674;13.074;2023-02-22T10:26:41;5.60;99.90
20233;DHT22;37438;55.674;13.074;2023-02-22T10:30:02;5.70;99.90
20233;DHT22;37438;55.674;13.074;2023-02-22T10:33:33;5.80;99.90
20233;DHT22;37438;55.674;13.074;2023-02-22T10:36:42;5.80;99.90
20233;DHT22;37438;55.674;13.074;2023-02-22T10:39:50;5.80;99.90
20233;DHT22;37438;55.674;13.074;2023-02-22T10:43:02;5.80;99.90
20233;DHT22;37438;55.674;13.074;2023-02-22T10:46:11;6.00;99.90
20233;DHT22;37438;55.674;13.074;2023-02-22T10:49:20;5.80;99.90
20233;DHT22;37438;55.674;13.074;2023-02-22T10:52:32;5.70;99.90
20233;DHT22;37438;55.674;13.074;2023-02-22T10:56:15;5.60;99.90
20233;DHT22;37438;55.674;13.074;2023-02-22T10:59:40;5.70;99.90
20233;DHT22;37438;55.674;13.074;2023-02-22T11:02:57;5.70;99.90
20233;DHT22;37438;55.674;13.074;2023-02-22T11:06:18;5.80;99.90
20233;DHT22;37438;55.674;13.074;2023-02-22T11:09:23;6.00;99.90
20233;DHT22;37438;55.674;13.074;2023-02-22T11:12:36;5.90;99.90
20233;DHT22;37438;55.674;13.074;2023-02-22T11:15:41;6.00;99.90
20233;DHT22;37438;55.674;13.074;2023-02-22T11:18:46;5.70;99.90
20233;DHT22;37438;55.674;13.074;2023-02-22T11:21:52;5.70;99.90
20233;DHT22;37438;55.674;13.074;2023-02-22T11:25:00;5.70;99.90
20233;DHT22;37438;55.674;13.074;2023-02-22T11:28:09;5.70;99.90
20233;DHT22;37438;55.674;13.074;2023-02-22T11:31:24;5.60;99.90
20233;DHT22;37438;55.674;13.074;2023-02-22T11:34:31;5.70;99.90
20233;DHT22;37438;55.674;13.074;2023-02-22T11:37:37;5.90;99.90
20233;DHT22;37438;55.674;13.074;2023-02-22T11:40:41;5.80;99.90
20233;DHT22;37438;55.674;13.074;2023-02-22T11:43:47;5.80;99.90
20233;DHT22;37438;55.674;13.074;2023-02-22T11:46:54;5.90;99.90
20233;DHT22;37438;55.674;13.074;2023-02-22T11:50:00;5.90;99.90
20233;DHT22;37438;55.674;13.074;2023-02-22T11:56:49;5.80;99.90
20233;DHT22;37438;55.674;13.074;2023-02-22T12:00:12;5.90;99.90
20233;DHT22;37438;55.674;13.074;2023-02-22T12:17:47;5.90;99.90
20233;DHT22;37438;55.674;13.074;2023-02-22T12:21:08;5.80;99.90
20233;DHT22;37438;55.674;13.074;2023-02-22T12:24:17;5.80;99.90
20233;DHT22;37438;55.674;13.074;2023-02-22T12:27:37;6.00;99.90
20233;DHT22;37438;55.674;13.074;2023-02-22T12:30:45;5.80;99.90
20233;DHT22;37438;55.674;13.074;2023-02-22T12:34:16;6.00;99.90
20233;DHT22;37438;55.674;13.074;2023-02-22T12:41:10;5.80;99.90
20233;DHT22;37438;55.674;13.074;2023-02-22T12:44:30;5.90;99.90
20233;DHT22;37438;55.674;13.074;2023-02-22T12:47:44;6.00;99.90
20233;DHT22;37438;55.674;13.074;2023-02-22T12:50:56;5.90;99.90
20233;DHT22;37438;55.674;13.074;2023-02-22T13:01:04;5.80;99.90
20233;DHT22;37438;55.674;13.074;2023-02-22T13:04:10;5.90;99.90
20233;DHT22;37438;55.674;13.074;2023-02-22T13:08:00;6.00;99.90
20233;DHT22;37438;55.674;13.074;2023-02-22T13:19:14;5.70;99.90
20233;DHT22;37438;55.674;13.074;2023-02-22T13:25:16;5.60;99.90
20233;DHT22;37438;55.674;13.074;2023-02-22T13:28:35;5.80;99.90
20233;DHT22;37438;55.674;13.074;2023-02-22T13:32:01;5.80;99.90
20233;DHT22;37438;55.674;13.074;2023-02-22T13:39:01;5.80;99.90
20233;DHT22;37438;55.674;13.074;2023-02-22T13:45:32;5.80;99.90
20233;DHT22;37438;55.674;13.074;2023-02-22T13:52:05;5.60;99.90
20233;DHT22;37438;55.674;13.074;2023-02-22T13:55:18;5.60;99.90
20233;DHT22;37438;55.674;13.074;2023-02-22T13:58:24;5.60;99.90
20233;DHT22;37438;55.674;13.074;2023-02-22T14:01:42;5.30;99.90
20233;DHT22;37438;55.674;13.074;2023-02-22T14:04:47;5.40;99.90
20233;DHT22;37438;55.674;13.074;2023-02-22T14:07:51;5.40;99.90
20233;DHT22;37438;55.674;13.074;2023-02-22T14:10:57;5.30;99.90
20233;DHT22;37438;55.674;13.074;2023-02-22T14:17:21;5.30;99.90
20233;DHT22;37438;55.674;13.074;2023-02-22T14:20:33;5.30;99.90
20233;DHT22;37438;55.674;13.074;2023-02-22T14:26:58;5.10;99.90
20233;DHT22;37438;55.674;13.074;2023-02-22T14:30:04;5.20;99.90
20233;DHT22;37438;55.674;13.074;2023-02-22T14:33:51;5.20;99.90
20233;DHT22;37438;55.674;13.074;2023-02-22T14:36:58;5.20;99.90
20233;DHT22;37438;55.674;13.074;2023-02-22T14:40:10;5.20;99.90
20233;DHT22;37438;55.674;13.074;2023-02-22T14:43:23;5.20;99.90
20233;DHT22;37438;55.674;13.074;2023-02-22T14:46:33;5.00;99.90
20233;DHT22;37438;55.674;13.074;2023-02-22T14:49:42;5.10;99.90
20233;DHT22;37438;55.674;13.074;2023-02-22T14:53:04;5.00;99.90
20233;DHT22;37438;55.674;13.074;2023-02-22T14:56:32;5.10;99.90
20233;DHT22;37438;55.674;13.074;2023-02-22T15:03:02;4.90;99.90
20233;DHT22;37438;55.674;13.074;2023-02-22T15:06:22;4.90;99.90
20233;DHT22;37438;55.674;13.074;2023-02-22T15:09:30;5.00;99.90
20233;DHT22;37438;55.674;13.074;2023-02-22T15:12:40;4.90;99.90
20233;DHT22;37438;55.674;13.074;2023-02-22T15:15:47;4.70;99.90
20233;DHT22;37438;55.674;13.074;2023-02-22T15:18:54;4.70;99.90
20233;DHT22;37438;55.674;13.074;2023-02-22T15:22:01;4.70;99.90
20233;DHT22;37438;55.674;13.074;2023-02-22T15:25:07;4.60;99.90
20233;DHT22;37438;55.674;13.074;2023-02-22T15:28:13;4.60;99.90
20233;DHT22;37438;55.674;13.074;2023-02-22T15:34:32;4.50;99.90
20233;DHT22;37438;55.674;13.074;2023-02-22T15:37:37;4.60;99.90
20233;DHT22;37438;55.674;13.074;2023-02-22T15:40:41;4.80;99.90
20233;DHT22;37438;55.674;13.074;2023-02-22T15:43:59;4.70;99.90
20233;DHT22;37438;55.674;13.074;2023-02-22T15:47:25;4.50;99.90
20233;DHT22;37438;55.674;13.074;2023-02-22T15:50:33;4.40;99.90
20233;DHT22;37438;55.674;13.074;2023-02-22T15:53:45;4.30;99.90
20233;DHT22;37438;55.674;13.074;2023-02-22T15:56:52;4.20;99.90
20233;DHT22;37438;55.674;13.074;2023-02-22T15:59:59;4.20;99.90
20233;DHT22;37438;55.674;13.074;2023-02-22T16:03:07;4.10;99.90
20233;DHT22;37438;55.674;13.074;2023-02-22T16:09:32;3.90;99.90
20233;DHT22;37438;55.674;13.074;2023-02-22T16:12:37;3.90;99.90
20233;DHT22;37438;55.674;13.074;2023-02-22T16:15:52;3.80;99.90
20233;DHT22;37438;55.674;13.074;2023-02-22T16:19:26;3.70;99.90
20233;DHT22;37438;55.674;13.074;2023-02-22T16:22:33;3.70;99.90
20233;DHT22;37438;55.674;13.074;2023-02-22T16:25:38;3.60;99.90
20233;DHT22;37438;55.674;13.074;2023-02-22T16:29:03;3.60;99.90
20233;DHT22;37438;55.674;13.074;2023-02-22T16:32:09;3.50;99.90
20233;DHT22;37438;55.674;13.074;2023-02-22T16:35:14;3.50;99.90
20233;DHT22;37438;55.674;13.074;2023-02-22T16:38:23;3.40;99.90
20233;DHT22;37438;55.674;13.074;2023-02-22T16:41:31;3.40;99.90
20233;DHT22;37438;55.674;13.074;2023-02-22T16:44:35;3.40;99.90
20233;DHT22;37438;55.674;13.074;2023-02-22T16:47:39;3.30;99.90
20233;DHT22;37438;55.674;13.074;2023-02-22T16:50:44;3.30;99.90
20233;DHT22;37438;55.674;13.074;2023-02-22T16:53:49;3.30;99.90
20233;DHT22;37438;55.674;13.074;2023-02-22T16:56:55;3.30;99.90
20233;DHT22;37438;55.674;13.074;2023-02-22T17:00:00;3.20;99.90
20233;DHT22;37438;55.674;13.074;2023-02-22T17:03:04;3.20;99.90
20233;DHT22;37438;55.674;13.074;2023-02-22T17:06:09;3.20;99.90
20233;DHT22;37438;55.674;13.074;2023-02-22T17:09:14;3.20;99.90
20233;DHT22;37438;55.674;13.074;2023-02-22T17:12:18;3.10;99.90
20233;DHT22;37438;55.674;13.074;2023-02-22T17:15:26;3.10;99.90
20233;DHT22;37438;55.674;13.074;2023-02-22T17:18:30;3.10;99.90
20233;DHT22;37438;55.674;13.074;2023-02-22T17:21:37;3.10;99.90
20233;DHT22;37438;55.674;13.074;2023-02-22T17:24:41;3.00;99.90
20233;DHT22;37438;55.674;13.074;2023-02-22T17:27:45;3.00;99.90
20233;DHT22;37438;55.674;13.074;2023-02-22T17:30:51;3.00;99.90
20233;DHT22;37438;55.674;13.074;2023-02-22T17:34:00;3.00;99.90
20233;DHT22;37438;55.674;13.074;2023-02-22T17:37:05;3.10;99.90
20233;DHT22;37438;55.674;13.074;2023-02-22T17:40:09;3.10;99.90
20233;DHT22;37438;55.674;13.074;2023-02-22T17:43:15;3.10;99.90
20233;DHT22;37438;55.674;13.074;2023-02-22T17:46:20;3.10;99.90
20233;DHT22;37438;55.674;13.074;2023-02-22T17:49:24;3.10;99.90
20233;DHT22;37438;55.674;13.074;2023-02-22T17:52:28;3.10;99.90
20233;DHT22;37438;55.674;13.074;2023-02-22T17:55:35;3.10;99.90
20233;DHT22;37438;55.674;13.074;2023-02-22T17:58:41;3.10;99.90
20233;DHT22;37438;55.674;13.074;2023-02-22T18:01:46;3.00;99.90
20233;DHT22;37438;55.674;13.074;2023-02-22T18:04:51;3.10;99.90
20233;DHT22;37438;55.674;13.074;2023-02-22T18:07:55;3.10;99.90
20233;DHT22;37438;55.674;13.074;2023-02-22T18:11:03;3.10;99.90
20233;DHT22;37438;55.674;13.074;2023-02-22T18:14:08;3.10;99.90
20233;DHT22;37438;55.674;13.074;2023-02-22T18:17:14;3.10;99.90
20233;DHT22;37438;55.674;13.074;2023-02-22T18:20:19;3.10;99.90
20233;DHT22;37438;55.674;13.074;2023-02-22T18:23:34;3.10;99.90
20233;DHT22;37438;55.674;13.074;2023-02-22T18:26:38;3.00;99.90
20233;DHT22;37438;55.674;13.074;2023-02-22T18:29:43;3.10;99.90
20233;DHT22;37438;55.674;13.074;2023-02-22T18:32:47;3.10;99.90
20233;DHT22;37438;55.674;13.074;2023-02-22T18:35:52;3.00;99.90
20233;DHT22;37438;55.674;13.074;2023-02-22T18:38:56;3.00;99.90
20233;DHT22;37438;55.674;13.074;2023-02-22T18:42:01;3.10;99.90
20233;DHT22;37438;55.674;13.074;2023-02-22T18:45:06;3.10;99.90
20233;DHT22;37438;55.674;13.074;2023-02-22T18:48:11;3.10;99.90
20233;DHT22;37438;55.674;13.074;2023-02-22T18:51:16;3.10;99.90
20233;DHT22;37438;55.674;13.074;2023-02-22T18:54:20;3.10;99.90
20233;DHT22;37438;55.674;13.074;2023-02-22T18:57:24;3.10;99.90
20233;DHT22;37438;55.674;13.074;2023-02-22T19:00:33;3.10;99.90
20233;DHT22;37438;55.674;13.074;2023-02-22T19:03:37;3.10;99.90
20233;DHT22;37438;55.674;13.074;2023-02-22T19:06:41;3.10;99.90
20233;DHT22;37438;55.674;13.074;2023-02-22T19:09:48;3.20;99.90
20233;DHT22;37438;55.674;13.074;2023-02-22T19:12:55;3.10;99.90
20233;DHT22;37438;55.674;13.074;2023-02-22T19:16:01;3.20;99.90
20233;DHT22;37438;55.674;13.074;2023-02-22T19:19:06;3.10;99.90
20233;DHT22;37438;55.674;13.074;2023-02-22T19:22:11;3.20;99.90
20233;DHT22;37438;55.674;13.074;2023-02-22T19:25:18;3.20;99.90
20233;DHT22;37438;55.674;13.074;2023-02-22T19:28:22;3.10;99.90
20233;DHT22;37438;55.674;13.074;2023-02-22T19:31:32;3.20;99.90
20233;DHT22;37438;55.674;13.074;2023-02-22T19:34:36;3.10;99.90
20233;DHT22;37438;55.674;13.074;2023-02-22T19:37:41;3.20;99.90
20233;DHT22;37438;55.674;13.074;2023-02-22T19:40:46;3.20;99.90
20233;DHT22;37438;55.674;13.074;2023-02-22T19:43:52;3.20;99.90
20233;DHT22;37438;55.674;13.074;2023-02-22T19:46:56;3.20;99.90
20233;DHT22;37438;55.674;13.074;2023-02-22T19:50:00;3.10;99.90
20233;DHT22;37438;55.674;13.074;2023-02-22T19:53:05;3.10;99.90
20233;DHT22;37438;55.674;13.074;2023-02-22T19:56:16;3.10;99.90
20233;DHT22;37438;55.674;13.074;2023-02-22T19:59:21;3.10;99.90
20233;DHT22;37438;55.674;13.074;2023-02-22T20:02:26;3.10;99.90
20233;DHT22;37438;55.674;13.074;2023-02-22T20:05:32;3.10;99.90
20233;DHT22;37438;55.674;13.074;2023-02-22T20:08:39;3.10;99.90
20233;DHT22;37438;55.674;13.074;2023-02-22T20:11:46;3.10;99.90
20233;DHT22;37438;55.674;13.074;2023-02-22T20:14:51;3.10;99.90
20233;DHT22;37438;55.674;13.074;2023-02-22T20:17:55;3.10;99.90
20233;DHT22;37438;55.674;13.074;2023-02-22T20:21:06;3.10;99.90
20233;DHT22;37438;55.674;13.074;2023-02-22T20:24:11;3.10;99.90
20233;DHT22;37438;55.674;13.074;2023-02-22T20:27:18;3.20;99.90
20233;DHT22;37438;55.674;13.074;2023-02-22T20:30:23;3.20;99.90
20233;DHT22;37438;55.674;13.074;2023-02-22T20:33:27;3.20;99.90
20233;DHT22;37438;55.674;13.074;2023-02-22T20:36:33;3.30;99.90
20233;DHT22;37438;55.674;13.074;2023-02-22T20:39:40;3.20;99.90
20233;DHT22;37438;55.674;13.074;2023-02-22T20:42:45;3.30;99.90
20233;DHT22;37438;55.674;13.074;2023-02-22T20:45:51;3.40;99.90
20233;DHT22;37438;55.674;13.074;2023-02-22T20:48:57;3.40;99.90
20233;DHT22;37438;55.674;13.074;2023-02-22T20:52:01;3.50;99.90
20233;DHT22;37438;55.674;13.074;2023-02-22T20:55:05;3.50;99.90
20233;DHT22;37438;55.674;13.074;2023-02-22T20:58:14;3.50;99.90
20233;DHT22;37438;55.674;13.074;2023-02-22T21:01:19;3.60;99.90
20233;DHT22;37438;55.674;13.074;2023-02-22T21:04:25;3.50;99.90
20233;DHT22;37438;55.674;13.074;2023-02-22T21:07:34;3.60;99.90
20233;DHT22;37438;55.674;13.074;2023-02-22T21:10:45;3.60;99.90
20233;DHT22;37438;55.674;13.074;2023-02-22T21:13:51;3.70;99.90
20233;DHT22;37438;55.674;13.074;2023-02-22T21:16:56;3.60;99.90
20233;DHT22;37438;55.674;13.074;2023-02-22T21:20:00;3.70;99.90
20233;DHT22;37438;55.674;13.074;2023-02-22T21:23:10;3.70;99.90
20233;DHT22;37438;55.674;13.074;2023-02-22T21:26:17;3.80;99.90
20233;DHT22;37438;55.674;13.074;2023-02-22T21:29:22;3.90;99.90